sensor_id;sensor_type;location;lat;lon;timestamp;P1;durP1;ratioP1;P2;durP2;ratioP2
8556;SDS011;4316;53.840;10.762;2023-01-25T00:01:56;27.27;;;16.23;;
8556;SDS011;4316;53.840;10.762;2023-01-25T00:04:22;22.23;;;15.83;;
8556;SDS011;4316;53.840;10.762;2023-01-25T00:06:48;24.90;;;15.97;;
8556;SDS011;4316;53.840;10.762;2023-01-25T00:09:14;28.07;;;15.87;;
8556;SDS011;4316;53.840;10.762;2023-01-25T00:11:40;26.57;;;15.27;;
8556;SDS011;4316;53.840;10.762;2023-01-25T00:14:08;25.13;;;16.83;;
8556;SDS011;4316;53.840;10.762;2023-01-25T00:16:37;25.03;;;16.50;;
8556;SDS011;4316;53.840;10.762;2023-01-25T00:19:04;25.57;;;16.57;;
8556;SDS011;4316;53.840;10.762;2023-01-25T00:21:30;25.93;;;16.60;;
8556;SDS011;4316;53.840;10.762;2023-01-25T00:23:56;31.90;;;17.80;;
8556;SDS011;4316;53.840;10.762;2023-01-25T00:26:22;24.17;;;16.77;;
8556;SDS011;4316;53.840;10.762;2023-01-25T00:28:56;28.63;;;17.50;;
8556;SDS011;4316;53.840;10.762;2023-01-25T00:31:26;27.53;;;16.80;;
8556;SDS011;4316;53.840;10.762;2023-01-25T00:34:06;28.43;;;17.70;;
8556;SDS011;4316;53.840;10.762;2023-01-25T00:36:43;24.50;;;16.90;;
8556;SDS011;4316;53.840;10.762;2023-01-25T00:39:10;24.90;;;17.43;;
8556;SDS011;4316;53.840;10.762;2023-01-25T00:41:37;28.07;;;17.93;;
8556;SDS011;4316;53.840;10.762;2023-01-25T00:44:03;28.87;;;17.83;;
8556;SDS011;4316;53.840;10.762;2023-01-25T00:46:29;28.17;;;18.20;;
8556;SDS011;4316;53.840;10.762;2023-01-25T00:48:54;35.77;;;17.73;;
8556;SDS011;4316;53.840;10.762;2023-01-25T00:51:20;31.03;;;18.10;;
8556;SDS011;4316;53.840;10.762;2023-01-25T00:53:47;27.77;;;19.20;;
8556;SDS011;4316;53.840;10.762;2023-01-25T00:56:12;27.83;;;18.70;;
8556;SDS011;4316;53.840;10.762;2023-01-25T00:58:39;29.73;;;18.67;;
8556;SDS011;4316;53.840;10.762;2023-01-25T01:01:07;28.07;;;19.00;;
8556;SDS011;4316;53.840;10.762;2023-01-25T01:03:33;30.27;;;18.93;;
8556;SDS011;4316;53.840;10.762;2023-01-25T01:06:06;29.20;;;17.53;;
8556;SDS011;4316;53.840;10.762;2023-01-25T01:08:33;30.57;;;19.30;;
8556;SDS011;4316;53.840;10.762;2023-01-25T01:11:04;28.50;;;19.27;;
8556;SDS011;4316;53.840;10.762;2023-01-25T01:13:31;30.20;;;18.97;;
8556;SDS011;4316;53.840;10.762;2023-01-25T01:15:59;34.77;;;21.17;;
8556;SDS011;4316;53.840;10.762;2023-01-25T01:18:36;33.23;;;19.30;;
8556;SDS011;4316;53.840;10.762;2023-01-25T01:21:06;35.63;;;21.03;;
8556;SDS011;4316;53.840;10.762;2023-01-25T01:23:33;33.80;;;20.40;;
8556;SDS011;4316;53.840;10.762;2023-01-25T01:26:00;39.20;;;20.33;;
8556;SDS011;4316;53.840;10.762;2023-01-25T01:28:29;37.70;;;21.27;;
8556;SDS011;4316;53.840;10.762;2023-01-25T01:30:59;35.40;;;21.40;;
8556;SDS011;4316;53.840;10.762;2023-01-25T01:33:29;35.30;;;21.57;;
8556;SDS011;4316;53.840;10.762;2023-01-25T01:35:55;34.60;;;21.00;;
8556;SDS011;4316;53.840;10.762;2023-01-25T01:38:21;34.30;;;18.97;;
8556;SDS011;4316;53.840;10.762;2023-01-25T01:40:47;34.27;;;20.87;;
8556;SDS011;4316;53.840;10.762;2023-01-25T01:43:20;37.40;;;21.00;;
8556;SDS011;4316;53.840;10.762;2023-01-25T01:56:37;30.77;;;19.20;;
8556;SDS011;4316;53.840;10.762;2023-01-25T01:59:06;26.63;;;17.13;;
8556;SDS011;4316;53.840;10.762;2023-01-25T02:01:33;30.40;;;18.83;;
8556;SDS011;4316;53.840;10.762;2023-01-25T02:03:59;29.83;;;19.23;;
8556;SDS011;4316;53.840;10.762;2023-01-25T02:06:29;28.47;;;17.87;;
8556;SDS011;4316;53.840;10.762;2023-01-25T02:09:03;31.33;;;18.80;;
8556;SDS011;4316;53.840;10.762;2023-01-25T02:11:29;28.87;;;17.90;;
8556;SDS011;4316;53.840;10.762;2023-01-25T02:13:56;28.80;;;18.33;;
8556;SDS011;4316;53.840;10.762;2023-01-25T02:16:25;23.93;;;17.20;;
8556;SDS011;4316;53.840;10.762;2023-01-25T02:18:52;24.63;;;16.73;;
8556;SDS011;4316;53.840;10.762;2023-01-25T02:21:22;30.23;;;19.00;;
8556;SDS011;4316;53.840;10.762;2023-01-25T02:23:53;25.70;;;17.50;;
8556;SDS011;4316;53.840;10.762;2023-01-25T02:26:27;25.97;;;17.27;;
8556;SDS011;4316;53.840;10.762;2023-01-25T02:28:58;28.53;;;18.67;;
8556;SDS011;4316;53.840;10.762;2023-01-25T02:31:27;27.33;;;18.70;;
8556;SDS011;4316;53.840;10.762;2023-01-25T02:33:53;31.30;;;18.33;;
8556;SDS011;4316;53.840;10.762;2023-01-25T02:36:23;27.43;;;18.40;;
8556;SDS011;4316;53.840;10.762;2023-01-25T02:38:53;28.73;;;19.17;;
8556;SDS011;4316;53.840;10.762;2023-01-25T02:41:29;28.30;;;18.33;;
8556;SDS011;4316;53.840;10.762;2023-01-25T02:43:59;34.27;;;20.33;;
8556;SDS011;4316;53.840;10.762;2023-01-25T02:46:28;25.57;;;17.70;;
8556;SDS011;4316;53.840;10.762;2023-01-25T02:48:56;28.53;;;18.10;;
8556;SDS011;4316;53.840;10.762;2023-01-25T02:51:24;28.00;;;18.97;;
8556;SDS011;4316;53.840;10.762;2023-01-25T02:53:51;30.97;;;19.83;;
8556;SDS011;4316;53.840;10.762;2023-01-25T02:56:17;30.77;;;19.83;;
8556;SDS011;4316;53.840;10.762;2023-01-25T02:58:43;28.17;;;18.83;;
8556;SDS011;4316;53.840;10.762;2023-01-25T03:01:09;26.43;;;19.10;;
8556;SDS011;4316;53.840;10.762;2023-01-25T03:03:39;27.23;;;18.63;;
8556;SDS011;4316;53.840;10.762;2023-01-25T03:06:05;30.10;;;20.03;;
8556;SDS011;4316;53.840;10.762;2023-01-25T03:08:31;29.03;;;17.93;;
8556;SDS011;4316;53.840;10.762;2023-01-25T03:10:58;30.67;;;20.13;;
8556;SDS011;4316;53.840;10.762;2023-01-25T03:13:26;33.57;;;20.77;;
8556;SDS011;4316;53.840;10.762;2023-01-25T03:15:57;27.60;;;20.47;;
8556;SDS011;4316;53.840;10.762;2023-01-25T03:18:28;33.73;;;22.07;;
8556;SDS011;4316;53.840;10.762;2023-01-25T03:20:54;35.53;;;21.40;;
8556;SDS011;4316;53.840;10.762;2023-01-25T03:23:20;33.47;;;21.37;;
8556;SDS011;4316;53.840;10.762;2023-01-25T03:25:45;27.20;;;18.80;;
8556;SDS011;4316;53.840;10.762;2023-01-25T03:28:15;33.63;;;21.37;;
8556;SDS011;4316;53.840;10.762;2023-01-25T03:30:40;31.73;;;21.67;;
8556;SDS011;4316;53.840;10.762;2023-01-25T03:33:06;32.77;;;20.70;;
8556;SDS011;4316;53.840;10.762;2023-01-25T03:35:32;36.37;;;22.63;;
8556;SDS011;4316;53.840;10.762;2023-01-25T03:37:58;36.97;;;24.33;;
8556;SDS011;4316;53.840;10.762;2023-01-25T03:40:24;37.10;;;21.87;;
8556;SDS011;4316;53.840;10.762;2023-01-25T03:42:50;38.67;;;22.77;;
8556;SDS011;4316;53.840;10.762;2023-01-25T03:45:17;38.60;;;24.07;;
8556;SDS011;4316;53.840;10.762;2023-01-25T03:47:43;36.70;;;22.60;;
8556;SDS011;4316;53.840;10.762;2023-01-25T03:50:08;36.17;;;22.57;;
8556;SDS011;4316;53.840;10.762;2023-01-25T03:52:36;34.23;;;22.10;;
8556;SDS011;4316;53.840;10.762;2023-01-25T03:55:06;41.13;;;24.73;;
8556;SDS011;4316;53.840;10.762;2023-01-25T03:57:34;38.40;;;25.00;;
8556;SDS011;4316;53.840;10.762;2023-01-25T04:00:03;34.90;;;22.03;;
8556;SDS011;4316;53.840;10.762;2023-01-25T04:02:40;30.97;;;22.00;;
8556;SDS011;4316;53.840;10.762;2023-01-25T04:05:07;34.70;;;22.07;;
8556;SDS011;4316;53.840;10.762;2023-01-25T04:07:33;31.03;;;19.97;;
8556;SDS011;4316;53.840;10.762;2023-01-25T04:10:01;34.80;;;22.30;;
8556;SDS011;4316;53.840;10.762;2023-01-25T04:12:26;28.43;;;20.87;;
8556;SDS011;4316;53.840;10.762;2023-01-25T04:14:52;31.90;;;20.10;;
8556;SDS011;4316;53.840;10.762;2023-01-25T04:17:20;31.83;;;19.57;;
8556;SDS011;4316;53.840;10.762;2023-01-25T04:19:49;36.63;;;20.80;;
8556;SDS011;4316;53.840;10.762;2023-01-25T04:22:18;29.70;;;19.80;;
8556;SDS011;4316;53.840;10.762;2023-01-25T04:24:43;27.43;;;18.97;;
8556;SDS011;4316;53.840;10.762;2023-01-25T04:27:09;30.17;;;20.23;;
8556;SDS011;4316;53.840;10.762;2023-01-25T04:29:43;32.17;;;19.20;;
8556;SDS011;4316;53.840;10.762;2023-01-25T04:32:14;29.93;;;18.80;;
8556;SDS011;4316;53.840;10.762;2023-01-25T04:34:40;28.47;;;20.13;;
8556;SDS011;4316;53.840;10.762;2023-01-25T04:37:10;26.80;;;18.47;;
8556;SDS011;4316;53.840;10.762;2023-01-25T04:39:45;24.10;;;15.93;;
8556;SDS011;4316;53.840;10.762;2023-01-25T04:42:11;27.97;;;17.33;;
8556;SDS011;4316;53.840;10.762;2023-01-25T04:44:37;21.40;;;15.23;;
8556;SDS011;4316;53.840;10.762;2023-01-25T04:47:02;24.43;;;15.83;;
8556;SDS011;4316;53.840;10.762;2023-01-25T04:49:28;25.43;;;17.03;;
8556;SDS011;4316;53.840;10.762;2023-01-25T04:51:54;27.37;;;16.83;;
8556;SDS011;4316;53.840;10.762;2023-01-25T04:54:20;26.50;;;16.97;;
8556;SDS011;4316;53.840;10.762;2023-01-25T04:56:46;23.67;;;16.93;;
8556;SDS011;4316;53.840;10.762;2023-01-25T04:59:11;23.40;;;15.40;;
8556;SDS011;4316;53.840;10.762;2023-01-25T05:01:37;21.13;;;15.77;;
8556;SDS011;4316;53.840;10.762;2023-01-25T05:04:05;24.70;;;16.67;;
8556;SDS011;4316;53.840;10.762;2023-01-25T05:06:36;26.37;;;16.67;;
8556;SDS011;4316;53.840;10.762;2023-01-25T05:09:01;20.87;;;15.30;;
8556;SDS011;4316;53.840;10.762;2023-01-25T05:11:28;23.50;;;14.80;;
8556;SDS011;4316;53.840;10.762;2023-01-25T05:14:00;20.33;;;14.30;;
8556;SDS011;4316;53.840;10.762;2023-01-25T05:16:29;20.53;;;14.47;;
8556;SDS011;4316;53.840;10.762;2023-01-25T05:18:56;26.73;;;14.93;;
8556;SDS011;4316;53.840;10.762;2023-01-25T05:21:30;24.00;;;14.83;;
8556;SDS011;4316;53.840;10.762;2023-01-25T05:24:14;19.20;;;13.90;;
8556;SDS011;4316;53.840;10.762;2023-01-25T05:26:41;22.60;;;14.50;;
8556;SDS011;4316;53.840;10.762;2023-01-25T05:29:28;24.77;;;14.03;;
8556;SDS011;4316;53.840;10.762;2023-01-25T05:32:00;20.30;;;14.10;;
8556;SDS011;4316;53.840;10.762;2023-01-25T05:34:27;20.53;;;14.67;;
8556;SDS011;4316;53.840;10.762;2023-01-25T05:36:53;23.27;;;14.57;;
8556;SDS011;4316;53.840;10.762;2023-01-25T05:39:19;24.07;;;13.03;;
8556;SDS011;4316;53.840;10.762;2023-01-25T05:41:46;19.30;;;13.10;;
8556;SDS011;4316;53.840;10.762;2023-01-25T05:44:13;25.93;;;14.77;;
8556;SDS011;4316;53.840;10.762;2023-01-25T05:46:43;28.10;;;15.57;;
8556;SDS011;4316;53.840;10.762;2023-01-25T05:49:09;26.50;;;14.33;;
8556;SDS011;4316;53.840;10.762;2023-01-25T05:51:35;21.40;;;14.80;;
8556;SDS011;4316;53.840;10.762;2023-01-25T05:54:02;22.03;;;13.10;;
8556;SDS011;4316;53.840;10.762;2023-01-25T05:56:29;22.30;;;14.07;;
8556;SDS011;4316;53.840;10.762;2023-01-25T05:58:56;23.47;;;15.00;;
8556;SDS011;4316;53.840;10.762;2023-01-25T06:01:23;20.87;;;14.33;;
8556;SDS011;4316;53.840;10.762;2023-01-25T06:03:54;22.40;;;14.60;;
8556;SDS011;4316;53.840;10.762;2023-01-25T06:06:23;20.80;;;14.10;;
8556;SDS011;4316;53.840;10.762;2023-01-25T06:08:50;25.20;;;13.90;;
8556;SDS011;4316;53.840;10.762;2023-01-25T06:11:17;21.20;;;14.20;;
8556;SDS011;4316;53.840;10.762;2023-01-25T06:13:46;24.23;;;14.23;;
8556;SDS011;4316;53.840;10.762;2023-01-25T06:16:12;19.70;;;11.53;;
8556;SDS011;4316;53.840;10.762;2023-01-25T06:18:42;26.23;;;14.10;;
8556;SDS011;4316;53.840;10.762;2023-01-25T06:21:18;28.00;;;14.27;;
8556;SDS011;4316;53.840;10.762;2023-01-25T06:23:44;19.40;;;13.60;;
8556;SDS011;4316;53.840;10.762;2023-01-25T06:26:10;20.83;;;14.33;;
8556;SDS011;4316;53.840;10.762;2023-01-25T06:28:37;20.43;;;14.13;;
8556;SDS011;4316;53.840;10.762;2023-01-25T06:31:06;21.83;;;12.73;;
8556;SDS011;4316;53.840;10.762;2023-01-25T06:33:34;18.43;;;12.60;;
8556;SDS011;4316;53.840;10.762;2023-01-25T06:36:05;17.77;;;11.97;;
8556;SDS011;4316;53.840;10.762;2023-01-25T06:38:32;21.07;;;13.83;;
8556;SDS011;4316;53.840;10.762;2023-01-25T06:41:01;19.87;;;13.07;;
8556;SDS011;4316;53.840;10.762;2023-01-25T06:43:29;20.30;;;12.90;;
8556;SDS011;4316;53.840;10.762;2023-01-25T06:45:59;21.80;;;13.60;;
8556;SDS011;4316;53.840;10.762;2023-01-25T06:48:30;17.43;;;12.73;;
8556;SDS011;4316;53.840;10.762;2023-01-25T06:50:57;21.90;;;13.13;;
8556;SDS011;4316;53.840;10.762;2023-01-25T06:53:28;18.77;;;12.60;;
8556;SDS011;4316;53.840;10.762;2023-01-25T06:56:02;25.83;;;13.67;;
8556;SDS011;4316;53.840;10.762;2023-01-25T06:58:33;18.60;;;12.13;;
8556;SDS011;4316;53.840;10.762;2023-01-25T07:01:00;20.73;;;12.73;;
8556;SDS011;4316;53.840;10.762;2023-01-25T07:03:28;16.57;;;12.50;;
8556;SDS011;4316;53.840;10.762;2023-01-25T07:06:04;17.07;;;12.57;;
8556;SDS011;4316;53.840;10.762;2023-01-25T07:08:32;18.73;;;12.77;;
8556;SDS011;4316;53.840;10.762;2023-01-25T07:11:01;18.80;;;12.80;;
8556;SDS011;4316;53.840;10.762;2023-01-25T07:13:28;12.77;;;9.13;;
8556;SDS011;4316;53.840;10.762;2023-01-25T07:15:56;16.83;;;11.23;;
8556;SDS011;4316;53.840;10.762;2023-01-25T07:18:23;19.00;;;11.30;;
8556;SDS011;4316;53.840;10.762;2023-01-25T07:20:50;14.13;;;9.83;;
8556;SDS011;4316;53.840;10.762;2023-01-25T07:23:16;18.63;;;10.37;;
8556;SDS011;4316;53.840;10.762;2023-01-25T07:25:45;14.10;;;10.50;;
8556;SDS011;4316;53.840;10.762;2023-01-25T07:28:12;13.33;;;10.87;;
8556;SDS011;4316;53.840;10.762;2023-01-25T07:30:39;16.50;;;11.17;;
8556;SDS011;4316;53.840;10.762;2023-01-25T07:33:04;12.23;;;10.63;;
8556;SDS011;4316;53.840;10.762;2023-01-25T07:35:30;18.10;;;11.03;;
8556;SDS011;4316;53.840;10.762;2023-01-25T07:37:57;14.97;;;9.80;;
8556;SDS011;4316;53.840;10.762;2023-01-25T07:40:23;14.87;;;11.10;;
8556;SDS011;4316;53.840;10.762;2023-01-25T07:42:52;11.20;;;9.93;;
8556;SDS011;4316;53.840;10.762;2023-01-25T07:45:18;16.23;;;11.70;;
8556;SDS011;4316;53.840;10.762;2023-01-25T07:47:45;13.90;;;11.63;;
8556;SDS011;4316;53.840;10.762;2023-01-25T07:50:11;13.70;;;11.60;;
8556;SDS011;4316;53.840;10.762;2023-01-25T07:52:37;15.63;;;11.57;;
8556;SDS011;4316;53.840;10.762;2023-01-25T07:55:03;16.73;;;10.83;;
8556;SDS011;4316;53.840;10.762;2023-01-25T07:57:29;16.27;;;11.73;;
8556;SDS011;4316;53.840;10.762;2023-01-25T07:59:54;14.10;;;11.53;;
8556;SDS011;4316;53.840;10.762;2023-01-25T08:02:20;15.70;;;12.33;;
8556;SDS011;4316;53.840;10.762;2023-01-25T08:04:46;14.73;;;11.23;;
8556;SDS011;4316;53.840;10.762;2023-01-25T08:07:12;14.43;;;11.60;;
8556;SDS011;4316;53.840;10.762;2023-01-25T08:09:39;12.30;;;10.17;;
8556;SDS011;4316;53.840;10.762;2023-01-25T08:12:06;14.97;;;10.87;;
8556;SDS011;4316;53.840;10.762;2023-01-25T08:14:32;16.03;;;11.80;;
8556;SDS011;4316;53.840;10.762;2023-01-25T08:16:58;15.43;;;11.80;;
8556;SDS011;4316;53.840;10.762;2023-01-25T08:19:23;18.83;;;11.60;;
8556;SDS011;4316;53.840;10.762;2023-01-25T08:21:50;15.77;;;10.47;;
8556;SDS011;4316;53.840;10.762;2023-01-25T08:24:16;15.53;;;11.80;;
8556;SDS011;4316;53.840;10.762;2023-01-25T08:26:42;11.40;;;10.30;;
8556;SDS011;4316;53.840;10.762;2023-01-25T08:29:08;11.80;;;9.97;;
8556;SDS011;4316;53.840;10.762;2023-01-25T08:31:36;12.20;;;10.07;;
8556;SDS011;4316;53.840;10.762;2023-01-25T08:34:03;13.50;;;10.70;;
8556;SDS011;4316;53.840;10.762;2023-01-25T08:36:29;13.73;;;11.00;;
8556;SDS011;4316;53.840;10.762;2023-01-25T08:38:56;14.93;;;11.87;;
8556;SDS011;4316;53.840;10.762;2023-01-25T08:41:23;12.97;;;10.80;;
8556;SDS011;4316;53.840;10.762;2023-01-25T08:43:50;14.73;;;10.60;;
8556;SDS011;4316;53.840;10.762;2023-01-25T08:46:17;13.37;;;10.90;;
8556;SDS011;4316;53.840;10.762;2023-01-25T08:48:43;17.83;;;11.10;;
8556;SDS011;4316;53.840;10.762;2023-01-25T08:51:15;14.93;;;11.50;;
8556;SDS011;4316;53.840;10.762;2023-01-25T08:53:41;13.20;;;11.70;;
8556;SDS011;4316;53.840;10.762;2023-01-25T08:56:08;15.17;;;11.20;;
8556;SDS011;4316;53.840;10.762;2023-01-25T08:58:36;14.63;;;11.67;;
8556;SDS011;4316;53.840;10.762;2023-01-25T09:01:07;13.73;;;10.97;;
8556;SDS011;4316;53.840;10.762;2023-01-25T09:03:35;14.90;;;11.53;;
8556;SDS011;4316;53.840;10.762;2023-01-25T09:06:02;15.03;;;12.10;;
8556;SDS011;4316;53.840;10.762;2023-01-25T09:08:28;16.00;;;12.37;;
8556;SDS011;4316;53.840;10.762;2023-01-25T09:10:54;20.10;;;12.30;;
8556;SDS011;4316;53.840;10.762;2023-01-25T09:13:19;17.57;;;12.40;;
8556;SDS011;4316;53.840;10.762;2023-01-25T09:15:45;16.33;;;11.30;;
8556;SDS011;4316;53.840;10.762;2023-01-25T09:18:10;15.17;;;12.40;;
8556;SDS011;4316;53.840;10.762;2023-01-25T09:20:37;18.30;;;13.10;;
8556;SDS011;4316;53.840;10.762;2023-01-25T09:23:03;15.73;;;11.87;;
8556;SDS011;4316;53.840;10.762;2023-01-25T09:25:29;14.60;;;12.50;;
8556;SDS011;4316;53.840;10.762;2023-01-25T09:27:54;15.27;;;12.67;;
8556;SDS011;4316;53.840;10.762;2023-01-25T09:30:20;16.03;;;12.03;;
8556;SDS011;4316;53.840;10.762;2023-01-25T09:32:51;13.73;;;11.43;;
8556;SDS011;4316;53.840;10.762;2023-01-25T09:35:16;13.90;;;12.37;;
8556;SDS011;4316;53.840;10.762;2023-01-25T09:37:42;14.23;;;10.90;;
8556;SDS011;4316;53.840;10.762;2023-01-25T09:40:16;14.37;;;11.90;;
8556;SDS011;4316;53.840;10.762;2023-01-25T09:43:06;12.73;;;10.97;;
8556;SDS011;4316;53.840;10.762;2023-01-25T09:45:37;14.23;;;11.23;;
8556;SDS011;4316;53.840;10.762;2023-01-25T09:48:12;14.50;;;12.00;;
8556;SDS011;4316;53.840;10.762;2023-01-25T09:50:58;15.13;;;12.50;;
8556;SDS011;4316;53.840;10.762;2023-01-25T09:53:50;13.60;;;11.13;;
8556;SDS011;4316;53.840;10.762;2023-01-25T09:56:24;13.30;;;11.60;;
8556;SDS011;4316;53.840;10.762;2023-01-25T09:58:57;19.03;;;12.70;;
8556;SDS011;4316;53.840;10.762;2023-01-25T10:06:52;19.67;;;11.80;;
8556;SDS011;4316;53.840;10.762;2023-01-25T10:12:15;15.37;;;12.37;;
8556;SDS011;4316;53.840;10.762;2023-01-25T10:14:45;13.47;;;11.70;;
8556;SDS011;4316;53.840;10.762;2023-01-25T10:22:47;18.07;;;13.57;;
8556;SDS011;4316;53.840;10.762;2023-01-25T10:25:23;15.50;;;13.30;;
8556;SDS011;4316;53.840;10.762;2023-01-25T10:28:16;17.83;;;13.93;;
8556;SDS011;4316;53.840;10.762;2023-01-25T10:30:57;17.00;;;14.03;;
8556;SDS011;4316;53.840;10.762;2023-01-25T10:33:27;18.83;;;14.00;;
8556;SDS011;4316;53.840;10.762;2023-01-25T10:35:55;16.07;;;13.17;;
8556;SDS011;4316;53.840;10.762;2023-01-25T10:38:28;17.70;;;15.50;;
8556;SDS011;4316;53.840;10.762;2023-01-25T10:41:01;20.87;;;16.30;;
8556;SDS011;4316;53.840;10.762;2023-01-25T10:43:32;18.03;;;14.90;;
8556;SDS011;4316;53.840;10.762;2023-01-25T10:45:57;20.27;;;15.07;;
8556;SDS011;4316;53.840;10.762;2023-01-25T10:48:28;20.80;;;16.00;;
8556;SDS011;4316;53.840;10.762;2023-01-25T10:50:57;23.47;;;15.93;;
8556;SDS011;4316;53.840;10.762;2023-01-25T10:53:27;18.97;;;15.43;;
8556;SDS011;4316;53.840;10.762;2023-01-25T10:58:44;24.47;;;16.97;;
8556;SDS011;4316;53.840;10.762;2023-01-25T11:03:52;20.60;;;15.93;;
8556;SDS011;4316;53.840;10.762;2023-01-25T11:06:27;25.97;;;17.70;;
8556;SDS011;4316;53.840;10.762;2023-01-25T11:08:55;22.20;;;16.40;;
8556;SDS011;4316;53.840;10.762;2023-01-25T11:11:22;20.30;;;16.60;;
8556;SDS011;4316;53.840;10.762;2023-01-25T11:13:50;21.87;;;16.57;;
8556;SDS011;4316;53.840;10.762;2023-01-25T11:16:35;19.37;;;15.23;;
8556;SDS011;4316;53.840;10.762;2023-01-25T11:19:04;19.90;;;15.83;;
8556;SDS011;4316;53.840;10.762;2023-01-25T11:21:51;22.63;;;15.93;;
8556;SDS011;4316;53.840;10.762;2023-01-25T11:24:18;19.93;;;15.57;;
8556;SDS011;4316;53.840;10.762;2023-01-25T11:26:44;17.77;;;15.87;;
8556;SDS011;4316;53.840;10.762;2023-01-25T11:29:17;17.40;;;14.50;;
8556;SDS011;4316;53.840;10.762;2023-01-25T11:31:47;31.23;;;16.23;;
8556;SDS011;4316;53.840;10.762;2023-01-25T11:34:18;18.53;;;15.33;;
8556;SDS011;4316;53.840;10.762;2023-01-25T11:39:37;22.07;;;14.50;;
8556;SDS011;4316;53.840;10.762;2023-01-25T11:42:11;20.40;;;13.60;;
8556;SDS011;4316;53.840;10.762;2023-01-25T11:44:55;17.57;;;15.33;;
8556;SDS011;4316;53.840;10.762;2023-01-25T11:51:28;22.27;;;17.50;;
8556;SDS011;4316;53.840;10.762;2023-01-25T11:53:34;21.70;;;16.80;;
8556;SDS011;4316;53.840;10.762;2023-01-25T12:02:14;22.67;;;16.80;;
8556;SDS011;4316;53.840;10.762;2023-01-25T12:13:37;23.90;;;16.70;;
8556;SDS011;4316;53.840;10.762;2023-01-25T12:16:32;21.27;;;16.67;;
8556;SDS011;4316;53.840;10.762;2023-01-25T12:25:15;24.07;;;18.13;;
8556;SDS011;4316;53.840;10.762;2023-01-25T12:27:47;23.90;;;18.27;;
8556;SDS011;4316;53.840;10.762;2023-01-25T12:33:19;24.10;;;18.57;;
8556;SDS011;4316;53.840;10.762;2023-01-25T12:35:58;26.37;;;17.63;;
8556;SDS011;4316;53.840;10.762;2023-01-25T12:38:35;22.10;;;18.53;;
8556;SDS011;4316;53.840;10.762;2023-01-25T12:41:19;27.77;;;21.43;;
8556;SDS011;4316;53.840;10.762;2023-01-25T12:46:28;23.47;;;18.40;;
8556;SDS011;4316;53.840;10.762;2023-01-25T12:49:00;24.07;;;17.67;;
8556;SDS011;4316;53.840;10.762;2023-01-25T12:51:34;25.27;;;19.03;;
8556;SDS011;4316;53.840;10.762;2023-01-25T12:54:16;25.53;;;20.30;;
8556;SDS011;4316;53.840;10.762;2023-01-25T12:57:01;29.13;;;20.23;;
8556;SDS011;4316;53.840;10.762;2023-01-25T12:59:39;21.03;;;16.13;;
8556;SDS011;4316;53.840;10.762;2023-01-25T13:07:43;26.13;;;19.60;;
8556;SDS011;4316;53.840;10.762;2023-01-25T13:10:22;32.83;;;21.70;;
8556;SDS011;4316;53.840;10.762;2023-01-25T13:12:54;26.63;;;21.13;;
8556;SDS011;4316;53.840;10.762;2023-01-25T13:17:59;27.57;;;20.90;;
8556;SDS011;4316;53.840;10.762;2023-01-25T13:28:47;31.70;;;22.23;;
8556;SDS011;4316;53.840;10.762;2023-01-25T13:37:14;26.33;;;22.00;;
8556;SDS011;4316;53.840;10.762;2023-01-25T13:42:35;30.00;;;23.70;;
8556;SDS011;4316;53.840;10.762;2023-01-25T13:45:16;30.80;;;22.20;;
8556;SDS011;4316;53.840;10.762;2023-01-25T13:47:44;31.83;;;21.80;;
8556;SDS011;4316;53.840;10.762;2023-01-25T13:50:26;29.57;;;22.27;;
8556;SDS011;4316;53.840;10.762;2023-01-25T13:53:02;31.03;;;22.77;;
8556;SDS011;4316;53.840;10.762;2023-01-25T13:55:37;37.77;;;26.37;;
8556;SDS011;4316;53.840;10.762;2023-01-25T13:58:08;36.00;;;27.80;;
8556;SDS011;4316;53.840;10.762;2023-01-25T14:00:56;39.87;;;30.23;;
8556;SDS011;4316;53.840;10.762;2023-01-25T14:05:59;33.40;;;23.43;;
8556;SDS011;4316;53.840;10.762;2023-01-25T14:08:28;31.17;;;23.37;;
8556;SDS011;4316;53.840;10.762;2023-01-25T14:10:55;37.10;;;26.17;;
8556;SDS011;4316;53.840;10.762;2023-01-25T14:13:22;42.53;;;31.77;;
8556;SDS011;4316;53.840;10.762;2023-01-25T14:18:25;30.27;;;23.93;;
8556;SDS011;4316;53.840;10.762;2023-01-25T14:21:08;35.53;;;24.93;;
8556;SDS011;4316;53.840;10.762;2023-01-25T14:23:34;35.03;;;23.53;;
8556;SDS011;4316;53.840;10.762;2023-01-25T14:25:59;30.77;;;22.63;;
8556;SDS011;4316;53.840;10.762;2023-01-25T14:28:26;33.57;;;25.80;;
8556;SDS011;4316;53.840;10.762;2023-01-25T14:30:54;36.07;;;24.93;;
8556;SDS011;4316;53.840;10.762;2023-01-25T14:33:23;34.27;;;25.47;;
8556;SDS011;4316;53.840;10.762;2023-01-25T14:35:54;41.77;;;24.80;;
8556;SDS011;4316;53.840;10.762;2023-01-25T14:38:28;34.50;;;26.70;;
8556;SDS011;4316;53.840;10.762;2023-01-25T14:40:59;34.30;;;26.00;;
8556;SDS011;4316;53.840;10.762;2023-01-25T14:43:28;41.13;;;26.27;;
8556;SDS011;4316;53.840;10.762;2023-01-25T14:45:55;35.17;;;25.70;;
8556;SDS011;4316;53.840;10.762;2023-01-25T14:48:34;35.83;;;26.30;;
8556;SDS011;4316;53.840;10.762;2023-01-25T14:51:15;37.53;;;26.43;;
8556;SDS011;4316;53.840;10.762;2023-01-25T14:54:00;33.50;;;26.70;;
8556;SDS011;4316;53.840;10.762;2023-01-25T14:58:59;38.10;;;26.10;;
8556;SDS011;4316;53.840;10.762;2023-01-25T15:01:29;37.63;;;26.93;;
8556;SDS011;4316;53.840;10.762;2023-01-25T15:03:59;26.77;;;20.77;;
8556;SDS011;4316;53.840;10.762;2023-01-25T15:06:26;38.90;;;27.87;;
8556;SDS011;4316;53.840;10.762;2023-01-25T15:08:51;50.13;;;30.33;;
8556;SDS011;4316;53.840;10.762;2023-01-25T15:11:35;39.27;;;27.67;;
8556;SDS011;4316;53.840;10.762;2023-01-25T15:14:16;38.30;;;27.13;;
8556;SDS011;4316;53.840;10.762;2023-01-25T15:16:44;36.70;;;25.57;;
8556;SDS011;4316;53.840;10.762;2023-01-25T15:22:15;39.30;;;28.43;;
8556;SDS011;4316;53.840;10.762;2023-01-25T15:24:41;36.97;;;25.93;;
8556;SDS011;4316;53.840;10.762;2023-01-25T15:27:08;42.50;;;26.23;;
8556;SDS011;4316;53.840;10.762;2023-01-25T15:29:35;23.23;;;16.37;;
8556;SDS011;4316;53.840;10.762;2023-01-25T15:32:02;35.77;;;26.93;;
8556;SDS011;4316;53.840;10.762;2023-01-25T15:34:28;38.47;;;28.07;;
8556;SDS011;4316;53.840;10.762;2023-01-25T15:36:56;45.33;;;30.33;;
8556;SDS011;4316;53.840;10.762;2023-01-25T15:39:22;36.00;;;26.63;;
8556;SDS011;4316;53.840;10.762;2023-01-25T15:41:47;41.90;;;30.70;;
8556;SDS011;4316;53.840;10.762;2023-01-25T15:44:13;41.30;;;29.03;;
8556;SDS011;4316;53.840;10.762;2023-01-25T15:46:40;41.57;;;29.23;;
8556;SDS011;4316;53.840;10.762;2023-01-25T15:49:09;47.83;;;32.30;;
8556;SDS011;4316;53.840;10.762;2023-01-25T15:51:41;37.93;;;27.77;;
8556;SDS011;4316;53.840;10.762;2023-01-25T15:54:07;35.63;;;25.90;;
8556;SDS011;4316;53.840;10.762;2023-01-25T15:56:33;38.90;;;28.60;;
8556;SDS011;4316;53.840;10.762;2023-01-25T15:59:04;36.33;;;26.17;;
8556;SDS011;4316;53.840;10.762;2023-01-25T16:01:31;38.73;;;27.00;;
8556;SDS011;4316;53.840;10.762;2023-01-25T16:03:57;37.87;;;26.23;;
8556;SDS011;4316;53.840;10.762;2023-01-25T16:06:37;41.33;;;28.67;;
8556;SDS011;4316;53.840;10.762;2023-01-25T16:09:10;40.00;;;30.33;;
8556;SDS011;4316;53.840;10.762;2023-01-25T16:11:45;36.23;;;27.63;;
8556;SDS011;4316;53.840;10.762;2023-01-25T16:14:11;36.17;;;26.93;;
8556;SDS011;4316;53.840;10.762;2023-01-25T16:16:47;38.77;;;25.40;;
8556;SDS011;4316;53.840;10.762;2023-01-25T16:19:14;43.17;;;26.67;;
8556;SDS011;4316;53.840;10.762;2023-01-25T16:21:41;33.10;;;25.17;;
8556;SDS011;4316;53.840;10.762;2023-01-25T16:24:07;31.27;;;25.70;;
8556;SDS011;4316;53.840;10.762;2023-01-25T16:26:34;36.33;;;26.37;;
8556;SDS011;4316;53.840;10.762;2023-01-25T16:29:02;34.37;;;24.77;;